sensor_id;sensor_type;location;lat;lon;timestamp;pressure;altitude;pressure_sealevel;temperature;humidity
23176;BME280;19910;42.652;23.332;2023-03-13T00:01:37;94880.25;;;1.06;65.25
23176;BME280;19910;42.652;23.332;2023-03-13T00:04:04;94869.59;;;1.06;65.62
23176;BME280;19910;42.652;23.332;2023-03-13T00:06:33;94881.84;;;1.02;67.35
23176;BME280;19910;42.652;23.332;2023-03-13T00:09:02;94882.34;;;0.99;66.37
23176;BME280;19910;42.652;23.332;2023-03-13T00:11:30;94875.69;;;0.96;66.84
23176;BME280;19910;42.652;23.332;2023-03-13T00:13:58;94877.03;;;0.99;66.50
23176;BME280;19910;42.652;23.332;2023-03-13T00:16:26;94884.47;;;0.92;67.02
23176;BME280;19910;42.652;23.332;2023-03-13T00:18:54;94882.88;;;0.91;67.18
23176;BME280;19910;42.652;23.332;2023-03-13T00:21:22;94893.75;;;0.84;67.00
23176;BME280;19910;42.652;23.332;2023-03-13T00:23:49;94889.25;;;0.90;65.80
23176;BME280;19910;42.652;23.332;2023-03-13T00:26:19;94888.75;;;0.93;65.89
23176;BME280;19910;42.652;23.332;2023-03-13T00:28:46;94895.13;;;0.87;66.66
23176;BME280;19910;42.652;23.332;2023-03-13T00:31:16;94884.72;;;0.90;65.56
23176;BME280;19910;42.652;23.332;2023-03-13T00:33:45;94891.41;;;0.98;65.28
23176;BME280;19910;42.652;23.332;2023-03-13T00:36:14;94899.44;;;1.03;64.83
23176;BME280;19910;42.652;23.332;2023-03-13T00:38:41;94892.78;;;0.95;65.38
23176;BME280;19910;42.652;23.332;2023-03-13T00:41:10;94889.25;;;0.90;66.27
23176;BME280;19910;42.652;23.332;2023-03-13T00:43:40;94890.34;;;0.94;65.46
23176;BME280;19910;42.652;23.332;2023-03-13T00:46:07;94899.19;;;1.04;65.02
23176;BME280;19910;42.652;23.332;2023-03-13T00:48:34;94898.38;;;1.04;64.83
23176;BME280;19910;42.652;23.332;2023-03-13T00:51:02;94892.78;;;1.05;64.79
23176;BME280;19910;42.652;23.332;2023-03-13T00:53:29;94887.69;;;0.99;65.13
23176;BME280;19910;42.652;23.332;2023-03-13T00:55:57;94887.16;;;0.97;64.59
23176;BME280;19910;42.652;23.332;2023-03-13T00:58:25;94883.94;;;0.90;65.86
23176;BME280;19910;42.652;23.332;2023-03-13T01:00:54;94886.56;;;0.85;66.12
23176;BME280;19910;42.652;23.332;2023-03-13T01:03:22;94884.97;;;0.84;65.57
23176;BME280;19910;42.652;23.332;2023-03-13T01:05:55;94887.66;;;0.89;64.99
23176;BME280;19910;42.652;23.332;2023-03-13T01:08:21;94890.28;;;0.79;65.90
23176;BME280;19910;42.652;23.332;2023-03-13T01:10:48;94896.69;;;0.78;65.42
23176;BME280;19910;42.652;23.332;2023-03-13T01:13:15;94885.72;;;0.74;65.58
23176;BME280;19910;42.652;23.332;2023-03-13T01:15:42;94882.25;;;0.74;66.18
23176;BME280;19910;42.652;23.332;2023-03-13T01:18:10;94886.53;;;0.75;67.27
23176;BME280;19910;42.652;23.332;2023-03-13T01:20:39;94887.28;;;0.70;66.93
23176;BME280;19910;42.652;23.332;2023-03-13T01:23:06;94886.53;;;0.75;67.76
23176;BME280;19910;42.652;23.332;2023-03-13T01:25:35;94887.09;;;0.82;67.34
23176;BME280;19910;42.652;23.332;2023-03-13T01:28:01;94896.66;;;0.73;67.86
23176;BME280;19910;42.652;23.332;2023-03-13T01:30:29;94899.81;;;0.69;69.19
23176;BME280;19910;42.652;23.332;2023-03-13T01:32:56;94892.94;;;0.79;70.07
23176;BME280;19910;42.652;23.332;2023-03-13T01:35:24;94896.72;;;0.88;69.72
23176;BME280;19910;42.652;23.332;2023-03-13T01:37:50;94901.25;;;0.87;68.81
23176;BME280;19910;42.652;23.332;2023-03-13T01:40:17;94899.63;;;0.81;70.36
23176;BME280;19910;42.652;23.332;2023-03-13T01:42:51;94902.31;;;0.81;70.54
23176;BME280;19910;42.652;23.332;2023-03-13T01:45:55;94910.47;;;0.69;71.06
23176;BME280;19910;42.652;23.332;2023-03-13T01:48:25;94910.47;;;0.69;70.37
23176;BME280;19910;42.652;23.332;2023-03-13T01:50:57;94908.56;;;0.60;70.76
23176;BME280;19910;42.652;23.332;2023-03-13T01:53:25;94913.69;;;0.66;71.17
23176;BME280;19910;42.652;23.332;2023-03-13T01:55:54;94905.34;;;0.58;71.80
23176;BME280;19910;42.652;23.332;2023-03-13T01:58:21;94910.38;;;0.49;71.68
23176;BME280;19910;42.652;23.332;2023-03-13T02:00:48;94912.47;;;0.42;71.18
23176;BME280;19910;42.652;23.332;2023-03-13T02:03:17;94918.78;;;0.31;73.00
23176;BME280;19910;42.652;23.332;2023-03-13T02:05:46;94915.66;;;0.39;73.51
23176;BME280;19910;42.652;23.332;2023-03-13T02:08:18;94908.53;;;0.50;73.16
23176;BME280;19910;42.652;23.332;2023-03-13T02:10:50;94909.34;;;0.55;73.43
23176;BME280;19910;42.652;23.332;2023-03-13T02:13:19;94910.63;;;0.48;73.86
23176;BME280;19910;42.652;23.332;2023-03-13T02:15:47;94911.41;;;0.43;73.95
23176;BME280;19910;42.652;23.332;2023-03-13T02:18:14;94913.59;;;0.51;72.04
23176;BME280;19910;42.652;23.332;2023-03-13T02:20:41;94926.06;;;0.46;72.84
23176;BME280;19910;42.652;23.332;2023-03-13T02:23:14;94923.59;;;0.34;74.59
23176;BME280;19910;42.652;23.332;2023-03-13T02:25:47;94926.75;;;0.26;74.45
23176;BME280;19910;42.652;23.332;2023-03-13T02:28:17;94938.50;;;0.30;73.87
23176;BME280;19910;42.652;23.332;2023-03-13T02:30:46;94937.41;;;0.26;75.16
23176;BME280;19910;42.652;23.332;2023-03-13T02:33:15;94930.47;;;0.25;76.14
23176;BME280;19910;42.652;23.332;2023-03-13T02:35:44;94945.34;;;0.21;76.09
23176;BME280;19910;42.652;23.332;2023-03-13T02:38:15;94947.25;;;0.25;76.02
23176;BME280;19910;42.652;23.332;2023-03-13T02:40:47;94941.63;;;0.22;76.24
23176;BME280;19910;42.652;23.332;2023-03-13T02:43:17;94961.34;;;0.21;76.76
23176;BME280;19910;42.652;23.332;2023-03-13T02:45:59;94965.06;;;0.20;76.42
23176;BME280;19910;42.652;23.332;2023-03-13T02:48:31;94973.00;;;0.15;76.74
23176;BME280;19910;42.652;23.332;2023-03-13T02:51:00;94976.81;;;0.24;77.40
23176;BME280;19910;42.652;23.332;2023-03-13T02:53:28;94974.78;;;0.36;76.86
23176;BME280;19910;42.652;23.332;2023-03-13T02:55:56;94977.41;;;0.31;75.75
23176;BME280;19910;42.652;23.332;2023-03-13T02:58:23;94973.53;;;0.12;75.79
23176;BME280;19910;42.652;23.332;2023-03-13T03:00:51;94976.72;;;0.14;76.20
23176;BME280;19910;42.652;23.332;2023-03-13T03:03:17;94982.09;;;0.19;75.79
23176;BME280;19910;42.652;23.332;2023-03-13T03:05:44;94972.97;;;0.10;75.94
23176;BME280;19910;42.652;23.332;2023-03-13T03:08:11;94978.03;;;0.11;76.35
23176;BME280;19910;42.652;23.332;2023-03-13T03:10:38;94972.13;;;0.04;75.00
23176;BME280;19910;42.652;23.332;2023-03-13T03:13:06;94979.63;;;-0.20;75.10
23176;BME280;19910;42.652;23.332;2023-03-13T03:15:32;94974.78;;;-0.23;74.85
23176;BME280;19910;42.652;23.332;2023-03-13T03:17:59;94987.91;;;-0.16;76.22
23176;BME280;19910;42.652;23.332;2023-03-13T03:20:26;94999.78;;;-0.29;77.18
23176;BME280;19910;42.652;23.332;2023-03-13T03:22:53;94991.47;;;-0.54;78.97
23176;BME280;19910;42.652;23.332;2023-03-13T03:25:19;94998.94;;;-0.56;78.75
23176;BME280;19910;42.652;23.332;2023-03-13T03:27:46;95015.44;;;-0.76;78.96
23176;BME280;19910;42.652;23.332;2023-03-13T03:30:14;95020.16;;;-0.83;78.78
23176;BME280;19910;42.652;23.332;2023-03-13T03:32:41;95021.38;;;-0.91;78.59
23176;BME280;19910;42.652;23.332;2023-03-13T03:35:08;95031.69;;;-0.94;78.27
23176;BME280;19910;42.652;23.332;2023-03-13T03:37:35;95031.31;;;-1.03;79.09
23176;BME280;19910;42.652;23.332;2023-03-13T03:40:02;95034.22;;;-1.04;79.17
23176;BME280;19910;42.652;23.332;2023-03-13T03:42:30;95031.31;;;-1.03;79.76
23176;BME280;19910;42.652;23.332;2023-03-13T03:44:56;95032.44;;;-0.99;81.32
23176;BME280;19910;42.652;23.332;2023-03-13T03:47:25;95046.09;;;-0.90;80.28
23176;BME280;19910;42.652;23.332;2023-03-13T03:49:51;95056.72;;;-1.12;80.67
23176;BME280;19910;42.652;23.332;2023-03-13T03:52:18;95053.97;;;-1.17;80.52
23176;BME280;19910;42.652;23.332;2023-03-13T03:54:45;95048.56;;;-1.22;80.86
23176;BME280;19910;42.652;23.332;2023-03-13T03:57:11;95051.63;;;-1.14;80.76
23176;BME280;19910;42.652;23.332;2023-03-13T03:59:38;95058.31;;;-1.11;81.55
23176;BME280;19910;42.652;23.332;2023-03-13T04:02:05;95064.09;;;-0.97;81.77
23176;BME280;19910;42.652;23.332;2023-03-13T04:04:33;95061.28;;;-1.08;82.08
23176;BME280;19910;42.652;23.332;2023-03-13T04:07:00;95062.50;;;-1.15;82.51
23176;BME280;19910;42.652;23.332;2023-03-13T04:09:27;95063.41;;;-1.10;83.35
23176;BME280;19910;42.652;23.332;2023-03-13T04:11:53;95071.63;;;-1.11;82.75
23176;BME280;19910;42.652;23.332;2023-03-13T04:14:20;95081.91;;;-1.15;83.04
23176;BME280;19910;42.652;23.332;2023-03-13T04:16:47;95092.22;;;-1.18;83.33
23176;BME280;19910;42.652;23.332;2023-03-13T04:19:14;95084.25;;;-1.18;83.04
23176;BME280;19910;42.652;23.332;2023-03-13T04:21:42;95088.53;;;-1.17;82.02
23176;BME280;19910;42.652;23.332;2023-03-13T04:24:08;95095.53;;;-1.11;82.59
23176;BME280;19910;42.652;23.332;2023-03-13T04:26:35;95089.78;;;-1.03;82.89
23176;BME280;19910;42.652;23.332;2023-03-13T04:29:02;95097.84;;;-0.98;82.11
23176;BME280;19910;42.652;23.332;2023-03-13T04:31:30;95104.59;;;-0.90;82.00
23176;BME280;19910;42.652;23.332;2023-03-13T04:33:57;95111.91;;;-0.81;83.55
23176;BME280;19910;42.652;23.332;2023-03-13T04:36:24;95107.31;;;-0.68;83.73
23176;BME280;19910;42.652;23.332;2023-03-13T04:38:52;95111.16;;;-0.59;83.34
23176;BME280;19910;42.652;23.332;2023-03-13T04:41:19;95120.25;;;-0.55;83.27
23176;BME280;19910;42.652;23.332;2023-03-13T04:43:45;95127.56;;;-0.46;83.18
23176;BME280;19910;42.652;23.332;2023-03-13T04:46:12;95127.72;;;-0.52;82.76
23176;BME280;19910;42.652;23.332;2023-03-13T04:48:39;95124.19;;;-0.41;82.11
23176;BME280;19910;42.652;23.332;2023-03-13T04:51:06;95129.50;;;-0.41;82.38
23176;BME280;19910;42.652;23.332;2023-03-13T04:53:32;95131.06;;;-0.40;82.69
23176;BME280;19910;42.652;23.332;2023-03-13T04:56:01;95134.81;;;-0.19;82.34
23176;BME280;19910;42.652;23.332;2023-03-13T04:58:27;95138.41;;;-0.09;80.67
23176;BME280;19910;42.652;23.332;2023-03-13T05:00:54;95126.00;;;0.02;79.96
23176;BME280;19910;42.652;23.332;2023-03-13T05:03:21;95133.91;;;0.19;80.21
23176;BME280;19910;42.652;23.332;2023-03-13T05:05:48;95125.09;;;1.04;79.10
23176;BME280;19910;42.652;23.332;2023-03-13T05:08:15;95127.94;;;2.44;74.34
23176;BME280;19910;42.652;23.332;2023-03-13T05:10:42;95118.84;;;3.51;69.78
23176;BME280;19910;42.652;23.332;2023-03-13T05:13:10;95115.69;;;4.19;65.50
23176;BME280;19910;42.652;23.332;2023-03-13T05:15:37;95101.53;;;4.52;61.94
23176;BME280;19910;42.652;23.332;2023-03-13T05:18:04;95107.38;;;4.64;62.16
23176;BME280;19910;42.652;23.332;2023-03-13T05:20:30;95116.66;;;5.16;61.13
23176;BME280;19910;42.652;23.332;2023-03-13T05:22:57;95116.53;;;6.13;58.02
23176;BME280;19910;42.652;23.332;2023-03-13T05:25:25;95115.84;;;7.01;55.72
23176;BME280;19910;42.652;23.332;2023-03-13T05:27:52;95123.06;;;7.38;54.04
23176;BME280;19910;42.652;23.332;2023-03-13T05:30:20;95119.69;;;8.06;52.24
23176;BME280;19910;42.652;23.332;2023-03-13T05:32:47;95118.44;;;8.45;51.10
23176;BME280;19910;42.652;23.332;2023-03-13T05:35:14;95119.22;;;8.95;48.56
23176;BME280;19910;42.652;23.332;2023-03-13T05:37:41;95130.88;;;8.27;48.56
23176;BME280;19910;42.652;23.332;2023-03-13T05:40:10;95131.50;;;8.51;48.83
23176;BME280;19910;42.652;23.332;2023-03-13T05:42:38;95126.25;;;8.82;47.71
23176;BME280;19910;42.652;23.332;2023-03-13T05:45:06;95134.94;;;8.93;47.63
23176;BME280;19910;42.652;23.332;2023-03-13T05:47:35;95127.59;;;9.52;45.98
23176;BME280;19910;42.652;23.332;2023-03-13T05:50:04;95124.03;;;10.27;44.65
23176;BME280;19910;42.652;23.332;2023-03-13T05:52:32;95124.56;;;10.46;44.02
23176;BME280;19910;42.652;23.332;2023-03-13T05:54:59;95125.00;;;11.05;42.93
23176;BME280;19910;42.652;23.332;2023-03-13T05:57:26;95130.13;;;11.32;41.67
23176;BME280;19910;42.652;23.332;2023-03-13T05:59:53;95133.44;;;10.78;41.85
23176;BME280;19910;42.652;23.332;2023-03-13T06:02:20;95139.91;;;10.59;42.58
23176;BME280;19910;42.652;23.332;2023-03-13T06:04:48;95138.69;;;9.73;42.99
23176;BME280;19910;42.652;23.332;2023-03-13T06:07:14;95140.53;;;10.17;43.06
23176;BME280;19910;42.652;23.332;2023-03-13T06:09:41;95135.38;;;11.03;40.66
23176;BME280;19910;42.652;23.332;2023-03-13T06:12:08;95137.25;;;11.71;39.46
23176;BME280;19910;42.652;23.332;2023-03-13T06:14:36;95138.72;;;11.34;40.06
23176;BME280;19910;42.652;23.332;2023-03-13T06:17:03;95133.44;;;11.81;39.41
23176;BME280;19910;42.652;23.332;2023-03-13T06:19:30;95136.66;;;11.23;39.50
23176;BME280;19910;42.652;23.332;2023-03-13T06:21:58;95139.97;;;10.77;40.21
23176;BME280;19910;42.652;23.332;2023-03-13T06:24:25;95137.13;;;11.16;40.14
23176;BME280;19910;42.652;23.332;2023-03-13T06:26:52;95146.97;;;10.78;40.18
23176;BME280;19910;42.652;23.332;2023-03-13T06:29:19;95144.75;;;11.66;38.94
23176;BME280;19910;42.652;23.332;2023-03-13T06:31:46;95146.69;;;11.74;39.01
23176;BME280;19910;42.652;23.332;2023-03-13T06:34:12;95143.34;;;11.86;38.62
23176;BME280;19910;42.652;23.332;2023-03-13T06:36:39;95141.22;;;12.76;37.78
23176;BME280;19910;42.652;23.332;2023-03-13T06:39:08;95128.19;;;10.90;38.84
23176;BME280;19910;42.652;23.332;2023-03-13T06:41:34;95130.31;;;10.14;39.65
23176;BME280;19910;42.652;23.332;2023-03-13T06:44:01;95128.03;;;9.45;40.98
23176;BME280;19910;42.652;23.332;2023-03-13T06:46:28;95122.53;;;10.60;40.19
23176;BME280;19910;42.652;23.332;2023-03-13T06:48:56;95124.22;;;11.48;38.42
23176;BME280;19910;42.652;23.332;2023-03-13T06:51:23;95120.19;;;11.54;38.60
23176;BME280;19910;42.652;23.332;2023-03-13T06:53:51;95130.59;;;10.04;39.89
23176;BME280;19910;42.652;23.332;2023-03-13T06:56:19;95141.50;;;9.90;40.92
23176;BME280;19910;42.652;23.332;2023-03-13T06:58:46;95128.97;;;10.99;39.41
23176;BME280;19910;42.652;23.332;2023-03-13T07:01:14;95131.19;;;9.92;41.42
23176;BME280;19910;42.652;23.332;2023-03-13T07:03:42;95115.38;;;11.85;38.52
23176;BME280;19910;42.652;23.332;2023-03-13T07:06:10;95119.22;;;11.67;38.00
23176;BME280;19910;42.652;23.332;2023-03-13T07:08:38;95124.16;;;11.65;38.48
23176;BME280;19910;42.652;23.332;2023-03-13T07:11:07;95119.56;;;10.79;39.21
23176;BME280;19910;42.652;23.332;2023-03-13T07:13:36;95123.25;;;9.73;40.79
23176;BME280;19910;42.652;23.332;2023-03-13T07:16:04;95142.31;;;8.51;43.73
23176;BME280;19910;42.652;23.332;2023-03-13T07:18:32;95145.31;;;8.36;43.52
23176;BME280;19910;42.652;23.332;2023-03-13T07:21:01;95136.28;;;8.00;44.68
23176;BME280;19910;42.652;23.332;2023-03-13T07:23:30;95134.09;;;8.15;43.50
23176;BME280;19910;42.652;23.332;2023-03-13T07:25:58;95124.53;;;7.63;45.17
23176;BME280;19910;42.652;23.332;2023-03-13T07:28:26;95133.78;;;6.92;46.00
23176;BME280;19910;42.652;23.332;2023-03-13T07:31:02;95138.44;;;6.44;47.09
23176;BME280;19910;42.652;23.332;2023-03-13T07:33:29;95135.38;;;6.56;46.97
23176;BME280;19910;42.652;23.332;2023-03-13T07:35:56;95129.03;;;6.65;46.80
23176;BME280;19910;42.652;23.332;2023-03-13T07:38:23;95130.03;;;7.07;45.97
23176;BME280;19910;42.652;23.332;2023-03-13T07:40:50;95134.06;;;7.09;45.96
23176;BME280;19910;42.652;23.332;2023-03-13T07:43:18;95136.66;;;7.14;45.57
23176;BME280;19910;42.652;23.332;2023-03-13T07:45:50;95134.16;;;7.37;46.40
23176;BME280;19910;42.652;23.332;2023-03-13T07:48:18;95136.34;;;7.35;47.04
23176;BME280;19910;42.652;23.332;2023-03-13T07:50:45;95131.53;;;7.32;46.51
23176;BME280;19910;42.652;23.332;2023-03-13T07:53:12;95136.03;;;7.82;46.34
23176;BME280;19910;42.652;23.332;2023-03-13T07:55:51;95135.63;;;6.12;50.44
23176;BME280;19910;42.652;23.332;2023-03-13T07:58:17;95139.84;;;5.94;52.00
23176;BME280;19910;42.652;23.332;2023-03-13T08:00:44;95134.16;;;6.00;52.31
23176;BME280;19910;42.652;23.332;2023-03-13T08:03:11;95117.00;;;6.58;51.30
23176;BME280;19910;42.652;23.332;2023-03-13T08:05:40;95123.09;;;6.02;51.03
23176;BME280;19910;42.652;23.332;2023-03-13T08:08:07;95121.88;;;5.60;53.00
23176;BME280;19910;42.652;23.332;2023-03-13T08:10:34;95118.41;;;6.55;51.73
23176;BME280;19910;42.652;23.332;2023-03-13T08:13:00;95120.97;;;6.23;51.34
23176;BME280;19910;42.652;23.332;2023-03-13T08:15:27;95120.50;;;5.92;52.38
23176;BME280;19910;42.652;23.332;2023-03-13T08:17:54;95112.03;;;5.80;52.34
23176;BME280;19910;42.652;23.332;2023-03-13T08:20:21;95115.72;;;5.89;52.52
23176;BME280;19910;42.652;23.332;2023-03-13T08:22:49;95112.53;;;5.82;53.07
23176;BME280;19910;42.652;23.332;2023-03-13T08:25:16;95122.00;;;6.27;52.22
23176;BME280;19910;42.652;23.332;2023-03-13T08:27:43;95123.81;;;6.31;53.11
23176;BME280;19910;42.652;23.332;2023-03-13T08:30:10;95115.91;;;6.59;51.38
23176;BME280;19910;42.652;23.332;2023-03-13T08:32:37;95117.97;;;6.86;51.00
23176;BME280;19910;42.652;23.332;2023-03-13T08:35:05;95120.50;;;7.14;49.85
23176;BME280;19910;42.652;23.332;2023-03-13T08:37:32;95117.38;;;7.40;49.60
23176;BME280;19910;42.652;23.332;2023-03-13T08:40:00;95126.03;;;7.69;49.62
23176;BME280;19910;42.652;23.332;2023-03-13T08:42:27;95127.44;;;7.80;49.07
23176;BME280;19910;42.652;23.332;2023-03-13T08:44:54;95126.81;;;7.56;49.52
23176;BME280;19910;42.652;23.332;2023-03-13T08:47:21;95122.53;;;6.85;50.57
23176;BME280;19910;42.652;23.332;2023-03-13T08:49:47;95125.59;;;6.60;51.20
23176;BME280;19910;42.652;23.332;2023-03-13T08:52:14;95123.09;;;6.26;52.65
23176;BME280;19910;42.652;23.332;2023-03-13T08:54:41;95118.63;;;6.59;53.79
23176;BME280;19910;42.652;23.332;2023-03-13T08:57:09;95114.09;;;7.10;51.37
23176;BME280;19910;42.652;23.332;2023-03-13T08:59:36;95116.81;;;6.92;51.95
23176;BME280;19910;42.652;23.332;2023-03-13T09:02:03;95109.97;;;7.32;51.46
23176;BME280;19910;42.652;23.332;2023-03-13T09:04:29;95116.28;;;7.41;49.94
23176;BME280;19910;42.652;23.332;2023-03-13T09:06:56;95120.00;;;6.94;50.11
23176;BME280;19910;42.652;23.332;2023-03-13T09:09:23;95113.88;;;6.88;51.07
23176;BME280;19910;42.652;23.332;2023-03-13T09:11:50;95121.09;;;6.74;50.84
23176;BME280;19910;42.652;23.332;2023-03-13T09:14:18;95111.78;;;6.85;50.79
23176;BME280;19910;42.652;23.332;2023-03-13T09:16:45;95108.97;;;7.28;49.98
23176;BME280;19910;42.652;23.332;2023-03-13T09:19:12;95110.41;;;7.53;52.86
23176;BME280;19910;42.652;23.332;2023-03-13T09:21:40;95106.56;;;7.72;48.61
23176;BME280;19910;42.652;23.332;2023-03-13T09:24:07;95095.56;;;7.55;48.83
23176;BME280;19910;42.652;23.332;2023-03-13T09:26:34;95097.19;;;7.24;49.10
23176;BME280;19910;42.652;23.332;2023-03-13T09:29:01;95095.03;;;7.53;49.69
23176;BME280;19910;42.652;23.332;2023-03-13T09:31:30;95102.28;;;7.85;49.47
23176;BME280;19910;42.652;23.332;2023-03-13T09:33:57;95104.63;;;7.92;48.26
23176;BME280;19910;42.652;23.332;2023-03-13T09:36:25;95102.94;;;7.49;48.90
23176;BME280;19910;42.652;23.332;2023-03-13T09:38:54;95104.28;;;8.07;48.03
23176;BME280;19910;42.652;23.332;2023-03-13T09:41:25;95107.91;;;8.30;47.09
23176;BME280;19910;42.652;23.332;2023-03-13T09:43:57;95109.69;;;8.07;48.35
23176;BME280;19910;42.652;23.332;2023-03-13T09:46:34;95099.31;;;8.41;48.47
23176;BME280;19910;42.652;23.332;2023-03-13T09:49:09;95098.53;;;8.41;48.22
23176;BME280;19910;42.652;23.332;2023-03-13T09:51:40;95099.69;;;8.21;47.03
23176;BME280;19910;42.652;23.332;2023-03-13T09:54:19;95096.91;;;8.12;47.30
23176;BME280;19910;42.652;23.332;2023-03-13T09:56:52;95097.00;;;7.94;47.72
23176;BME280;19910;42.652;23.332;2023-03-13T09:59:25;95094.91;;;7.91;47.40
23176;BME280;19910;42.652;23.332;2023-03-13T10:01:56;95089.22;;;8.06;47.00
23176;BME280;19910;42.652;23.332;2023-03-13T10:04:30;95086.91;;;7.72;47.64
23176;BME280;19910;42.652;23.332;2023-03-13T10:06:59;95090.13;;;7.88;48.26
23176;BME280;19910;42.652;23.332;2023-03-13T10:09:29;95092.50;;;8.58;46.39
23176;BME280;19910;42.652;23.332;2023-03-13T10:12:05;95086.59;;;8.55;45.89
23176;BME280;19910;42.652;23.332;2023-03-13T10:14:40;95078.50;;;8.28;46.74
23176;BME280;19910;42.652;23.332;2023-03-13T10:17:17;95067.13;;;8.31;46.89
23176;BME280;19910;42.652;23.332;2023-03-13T10:19:47;95061.22;;;8.29;47.89
23176;BME280;19910;42.652;23.332;2023-03-13T10:22:23;95053.72;;;8.40;46.26
23176;BME280;19910;42.652;23.332;2023-03-13T10:24:54;95054.16;;;8.33;46.95
23176;BME280;19910;42.652;23.332;2023-03-13T10:27:22;95055.53;;;8.17;47.18
23176;BME280;19910;42.652;23.332;2023-03-13T10:29:49;95046.53;;;8.08;47.37
23176;BME280;19910;42.652;23.332;2023-03-13T10:32:17;95037.75;;;8.66;48.55
23176;BME280;19910;42.652;23.332;2023-03-13T10:34:51;95024.41;;;9.27;46.09
23176;BME280;19910;42.652;23.332;2023-03-13T10:37:23;95019.28;;;9.96;45.35
23176;BME280;19910;42.652;23.332;2023-03-13T10:39:51;95023.09;;;9.95;43.72
23176;BME280;19910;42.652;23.332;2023-03-13T10:42:21;95017.53;;;10.49;43.45
23176;BME280;19910;42.652;23.332;2023-03-13T10:44:55;95015.91;;;10.56;43.01
23176;BME280;19910;42.652;23.332;2023-03-13T10:47:23;95009.72;;;10.56;41.62
23176;BME280;19910;42.652;23.332;2023-03-13T10:49:51;95010.34;;;10.44;43.33
23176;BME280;19910;42.652;23.332;2023-03-13T10:52:40;95000.97;;;10.50;42.95
23176;BME280;19910;42.652;23.332;2023-03-13T10:55:11;95004.22;;;9.73;43.86
23176;BME280;19910;42.652;23.332;2023-03-13T10:57:40;94999.38;;;10.01;45.89
23176;BME280;19910;42.652;23.332;2023-03-13T11:00:28;94991.06;;;10.89;45.05
23176;BME280;19910;42.652;23.332;2023-03-13T11:02:56;94991.06;;;10.89;45.47
23176;BME280;19910;42.652;23.332;2023-03-13T11:05:32;94993.59;;;11.11;42.65
23176;BME280;19910;42.652;23.332;2023-03-13T11:08:12;94980.72;;;10.65;41.72
23176;BME280;19910;42.652;23.332;2023-03-13T11:10:51;94983.72;;;10.20;43.27
23176;BME280;19910;42.652;23.332;2023-03-13T11:13:32;94965.78;;;9.93;43.05
23176;BME280;19910;42.652;23.332;2023-03-13T11:19:09;94976.22;;;9.69;44.45
23176;BME280;19910;42.652;23.332;2023-03-13T11:21:45;94968.75;;;10.23;42.83
23176;BME280;19910;42.652;23.332;2023-03-13T11:24:19;94971.94;;;10.25;43.18
23176;BME280;19910;42.652;23.332;2023-03-13T11:26:55;94965.47;;;9.95;43.74
23176;BME280;19910;42.652;23.332;2023-03-13T11:29:30;94956.81;;;10.50;43.16
23176;BME280;19910;42.652;23.332;2023-03-13T11:32:03;94966.47;;;10.08;43.68
23176;BME280;19910;42.652;23.332;2023-03-13T11:34:36;94947.88;;;10.32;44.00
23176;BME280;19910;42.652;23.332;2023-03-13T11:37:10;94942.28;;;10.72;43.38
23176;BME280;19910;42.652;23.332;2023-03-13T11:39:46;94947.25;;;10.78;43.87
23176;BME280;19910;42.652;23.332;2023-03-13T11:42:35;94941.66;;;10.92;41.82
23176;BME280;19910;42.652;23.332;2023-03-13T11:45:10;94938.19;;;11.29;41.65
23176;BME280;19910;42.652;23.332;2023-03-13T11:47:53;94925.59;;;11.33;41.94
23176;BME280;19910;42.652;23.332;2023-03-13T11:50:29;94925.75;;;10.64;41.81
23176;BME280;19910;42.652;23.332;2023-03-13T11:53:25;94912.91;;;9.87;43.53
23176;BME280;19910;42.652;23.332;2023-03-13T11:56:03;94912.63;;;9.97;43.65
23176;BME280;19910;42.652;23.332;2023-03-13T11:58:54;94904.88;;;10.48;44.04
23176;BME280;19910;42.652;23.332;2023-03-13T12:01:26;94899.53;;;11.03;42.32
23176;BME280;19910;42.652;23.332;2023-03-13T12:03:56;94900.03;;;11.34;41.91
23176;BME280;19910;42.652;23.332;2023-03-13T12:06:29;94902.97;;;11.59;42.05
23176;BME280;19910;42.652;23.332;2023-03-13T12:09:02;94889.97;;;11.73;41.45
23176;BME280;19910;42.652;23.332;2023-03-13T12:11:32;94873.59;;;11.90;42.12
23176;BME280;19910;42.652;23.332;2023-03-13T12:14:05;94881.31;;;12.09;41.12
23176;BME280;19910;42.652;23.332;2023-03-13T12:16:39;94872.00;;;12.31;41.79
23176;BME280;19910;42.652;23.332;2023-03-13T12:19:11;94877.66;;;12.05;40.36
23176;BME280;19910;42.652;23.332;2023-03-13T12:21:44;94876.09;;;11.36;42.84
23176;BME280;19910;42.652;23.332;2023-03-13T12:24:18;94868.91;;;11.40;40.59
23176;BME280;19910;42.652;23.332;2023-03-13T12:26:50;94862.50;;;11.74;40.59
23176;BME280;19910;42.652;23.332;2023-03-13T12:29:27;94865.66;;;12.06;41.34
23176;BME280;19910;42.652;23.332;2023-03-13T12:32:03;94850.56;;;12.38;40.89
23176;BME280;19910;42.652;23.332;2023-03-13T12:34:38;94852.69;;;12.65;40.52
23176;BME280;19910;42.652;23.332;2023-03-13T12:37:16;94846.13;;;12.66;40.57
23176;BME280;19910;42.652;23.332;2023-03-13T12:39:50;94863.06;;;12.51;41.37
23176;BME280;19910;42.652;23.332;2023-03-13T12:42:32;94859.34;;;11.64;40.83
23176;BME280;19910;42.652;23.332;2023-03-13T12:45:04;94866.69;;;10.96;41.27
23176;BME280;19910;42.652;23.332;2023-03-13T12:47:33;94860.38;;;10.75;42.30
23176;BME280;19910;42.652;23.332;2023-03-13T12:50:14;94860.84;;;10.68;42.79
23176;BME280;19910;42.652;23.332;2023-03-13T12:53:06;94866.19;;;11.02;41.83
23176;BME280;19910;42.652;23.332;2023-03-13T12:56:14;94858.88;;;10.94;42.00
23176;BME280;19910;42.652;23.332;2023-03-13T12:58:46;94863.38;;;11.28;43.60
23176;BME280;19910;42.652;23.332;2023-03-13T13:01:20;94873.47;;;11.49;42.06
23176;BME280;19910;42.652;23.332;2023-03-13T13:03:54;94869.56;;;11.67;41.85
23176;BME280;19910;42.652;23.332;2023-03-13T13:06:23;94863.28;;;11.84;41.46
23176;BME280;19910;42.652;23.332;2023-03-13T13:09:07;94856.41;;;11.86;41.33
23176;BME280;19910;42.652;23.332;2023-03-13T13:11:45;94859.28;;;11.81;40.92